createdAt,value
2023-12-18T00:00:34.255Z,8.38
2023-12-18T00:03:00.964Z,8.07
2023-12-18T00:05:27.592Z,8.70
2023-12-18T00:07:54.233Z,8.88
2023-12-18T00:10:20.767Z,8.05
2023-12-18T00:12:47.331Z,8.85
2023-12-18T00:15:14.205Z,8.80
2023-12-18T00:17:41.204Z,8.18
2023-12-18T00:20:08.133Z,8.18
2023-12-18T00:22:34.611Z,9.25
2023-12-18T00:25:01.116Z,8.50
2023-12-18T00:27:28.106Z,9.20
2023-12-18T00:29:54.616Z,9.07
2023-12-18T00:32:21.396Z,8.32
2023-12-18T00:34:48.063Z,8.23
2023-12-18T00:37:14.874Z,9.23
2023-12-18T00:39:41.424Z,8.77
2023-12-18T00:42:08.077Z,8.75
2023-12-18T00:44:34.570Z,8.48
2023-12-18T00:47:01.103Z,8.15
2023-12-18T00:49:29.391Z,8.52
2023-12-18T00:51:56.509Z,8.30
2023-12-18T00:54:23.150Z,9.07
2023-12-18T00:56:49.932Z,7.90
2023-12-18T00:59:16.463Z,8.73
2023-12-18T01:01:43.490Z,9.68
2023-12-18T01:04:10.197Z,8.23
2023-12-18T01:06:37.147Z,7.70
2023-12-18T01:09:04.408Z,8.52
2023-12-18T01:11:30.938Z,8.40
2023-12-18T01:13:57.593Z,7.53
2023-12-18T01:16:24.071Z,7.60
2023-12-18T01:18:50.807Z,7.20
2023-12-18T01:21:17.590Z,8.77
2023-12-18T01:23:44.091Z,8.50
2023-12-18T01:26:10.537Z,8.52
2023-12-18T01:28:37.067Z,8.60
2023-12-18T01:31:03.846Z,7.95
2023-12-18T01:33:30.518Z,7.85
2023-12-18T01:35:57.056Z,8.38
2023-12-18T01:38:23.521Z,7.65
2023-12-18T01:40:49.987Z,7.87
2023-12-18T01:43:26.010Z,8.38
2023-12-18T01:46:00.165Z,7.75
2023-12-18T01:48:28.091Z,7.80
2023-12-18T01:50:56.092Z,8.05
2023-12-18T01:53:28.643Z,7.87
2023-12-18T01:55:57.086Z,9.10
2023-12-18T01:58:24.340Z,7.68
2023-12-18T02:00:52.632Z,8.32
2023-12-18T02:03:20.441Z,7.75
2023-12-18T02:05:47.622Z,7.90
2023-12-18T02:08:15.048Z,7.72
2023-12-18T02:10:41.583Z,8.63
2023-12-18T02:13:08.227Z,7.35
2023-12-18T02:15:35.135Z,8.10
2023-12-18T02:18:01.759Z,8.13
2023-12-18T02:20:28.339Z,7.28
2023-12-18T02:22:54.796Z,7.50
2023-12-18T02:25:22.296Z,8.07
2023-12-18T02:27:50.378Z,8.40
2023-12-18T02:30:18.444Z,7.63
2023-12-18T02:32:45.208Z,8.30
2023-12-18T02:35:12.579Z,7.85
2023-12-18T02:37:40.330Z,8.60
2023-12-18T02:40:07.826Z,7.65
2023-12-18T02:42:34.597Z,8.03
2023-12-18T02:45:02.600Z,7.50
2023-12-18T02:47:29.592Z,7.45
2023-12-18T02:49:56.324Z,7.13
2023-12-18T02:52:22.859Z,8.00
2023-12-18T02:54:49.322Z,7.53
2023-12-18T02:57:15.871Z,7.90
2023-12-18T02:59:42.423Z,7.00
2023-12-18T03:02:08.953Z,7.93
2023-12-18T03:04:39.082Z,8.02
2023-12-18T03:07:05.705Z,7.40
2023-12-18T03:09:32.346Z,8.07
2023-12-18T03:11:58.813Z,7.78
2023-12-18T03:14:25.297Z,7.38
2023-12-18T03:16:51.785Z,7.55
2023-12-18T03:19:20.038Z,7.70
2023-12-18T03:21:47.145Z,7.40
2023-12-18T03:24:14.022Z,7.45
2023-12-18T03:26:40.484Z,7.63
2023-12-18T03:29:07.077Z,7.72
2023-12-18T03:31:33.736Z,8.30
2023-12-18T03:34:01.154Z,7.38
2023-12-18T03:36:29.031Z,8.23
2023-12-18T03:38:55.538Z,7.53
2023-12-18T03:41:22.022Z,7.22
2023-12-18T03:43:48.545Z,6.83
2023-12-18T03:46:15.119Z,7.25
2023-12-18T03:48:41.734Z,7.20
2023-12-18T03:51:08.395Z,7.50
2023-12-18T03:53:34.926Z,6.80
2023-12-18T03:56:01.514Z,7.90
2023-12-18T03:58:28.009Z,7.40
2023-12-18T04:00:54.653Z,8.18
2023-12-18T04:03:21.279Z,7.85
2023-12-18T04:05:47.809Z,7.15
2023-12-18T04:08:14.361Z,7.40
2023-12-18T04:10:40.817Z,6.53
2023-12-18T04:13:07.356Z,8.23
2023-12-18T04:15:33.974Z,7.57
2023-12-18T04:18:00.624Z,7.53
2023-12-18T04:20:27.189Z,7.77
2023-12-18T04:22:53.807Z,7.47
2023-12-18T04:25:20.371Z,6.70
2023-12-18T04:27:47.070Z,7.75
2023-12-18T04:30:14.095Z,6.03
2023-12-18T04:32:40.780Z,6.87
2023-12-18T04:35:07.602Z,6.65
2023-12-18T04:37:35.193Z,7.07
2023-12-18T04:40:02.171Z,6.90
2023-12-18T04:42:29.070Z,7.63
2023-12-18T04:44:55.629Z,7.67
2023-12-18T04:47:22.150Z,7.75
2023-12-18T04:49:48.810Z,7.75
2023-12-18T04:52:15.453Z,8.18
2023-12-18T04:54:42.033Z,8.85
2023-12-18T04:57:08.652Z,8.60
2023-12-18T04:59:35.134Z,7.55
2023-12-18T05:02:01.594Z,8.50
2023-12-18T05:04:28.172Z,9.70
2023-12-18T05:06:54.978Z,8.68
2023-12-18T05:09:21.466Z,8.50
2023-12-18T05:11:48.025Z,8.20
2023-12-18T05:14:14.475Z,9.32
2023-12-18T05:16:41.037Z,8.15
2023-12-18T05:19:07.607Z,9.63
2023-12-18T05:21:34.199Z,8.37
2023-12-18T05:24:00.713Z,9.85
2023-12-18T05:26:27.188Z,9.32
2023-12-18T05:28:53.677Z,9.25
2023-12-18T05:31:21.530Z,9.10
2023-12-18T05:33:48.332Z,9.13
2023-12-18T05:36:15.722Z,9.32
2023-12-18T05:38:42.308Z,9.55
2023-12-18T05:41:10.091Z,9.23
2023-12-18T05:43:36.599Z,10.18
2023-12-18T05:46:03.207Z,8.60
2023-12-18T05:48:30.130Z,8.90
2023-12-18T05:50:56.750Z,8.90
2023-12-18T05:53:23.217Z,9.43
2023-12-18T05:55:49.932Z,10.02
2023-12-18T05:58:16.413Z,10.30
2023-12-18T06:00:42.959Z,9.05
2023-12-18T06:03:09.958Z,9.18
2023-12-18T06:05:36.526Z,10.00
2023-12-18T06:08:03.069Z,9.32
2023-12-18T06:10:29.911Z,9.60
2023-12-18T06:12:56.514Z,10.13
2023-12-18T06:15:23.193Z,9.38
2023-12-18T06:17:49.718Z,10.20
2023-12-18T06:20:16.176Z,10.50
2023-12-18T06:22:42.845Z,10.03
2023-12-18T06:25:09.874Z,9.43
2023-12-18T06:27:36.388Z,8.75
2023-12-18T06:30:03.459Z,9.85
2023-12-18T06:32:30.200Z,9.20
2023-12-18T06:34:57.103Z,10.27
2023-12-18T06:37:26.299Z,9.70
2023-12-18T06:39:53.564Z,9.48
2023-12-18T06:42:20.072Z,9.52
2023-12-18T06:44:46.583Z,10.40
2023-12-18T06:47:13.304Z,9.33
2023-12-18T06:49:39.860Z,8.25
2023-12-18T06:52:06.437Z,9.82
2023-12-18T06:54:34.665Z,9.10
2023-12-18T06:57:02.449Z,12.07
2023-12-18T06:59:28.967Z,9.33
2023-12-18T07:01:55.540Z,9.65
2023-12-18T07:04:22.306Z,9.10
2023-12-18T07:06:48.899Z,10.10
2023-12-18T07:09:15.475Z,9.35
2023-12-18T07:11:42.014Z,9.50
2023-12-18T07:14:08.676Z,10.13
2023-12-18T07:16:35.230Z,9.48
2023-12-18T07:19:02.050Z,9.68
2023-12-18T07:21:28.637Z,10.90
2023-12-18T07:23:55.266Z,9.30
2023-12-18T07:26:23.066Z,9.18
2023-12-18T07:28:49.542Z,9.25
2023-12-18T07:31:16.352Z,9.90
2023-12-18T07:33:42.976Z,10.32
2023-12-18T07:36:10.649Z,9.80
2023-12-18T07:38:37.214Z,9.13
2023-12-18T07:41:06.680Z,9.75
2023-12-18T07:43:33.294Z,9.52
2023-12-18T07:45:59.865Z,9.23
2023-12-18T07:48:26.680Z,9.40
2023-12-18T07:50:53.895Z,9.65
2023-12-18T07:53:20.386Z,10.07
2023-12-18T07:55:46.882Z,10.15
2023-12-18T07:58:13.400Z,9.35
2023-12-18T08:00:40.005Z,9.33
2023-12-18T08:03:06.652Z,9.25
2023-12-18T08:05:33.368Z,9.30
2023-12-18T08:07:59.956Z,9.60
2023-12-18T08:10:26.598Z,9.65
2023-12-18T08:12:53.162Z,10.07
2023-12-18T08:15:19.704Z,10.40
2023-12-18T08:17:46.752Z,10.05
2023-12-18T08:20:13.481Z,9.13
2023-12-18T08:22:40.208Z,9.60
2023-12-18T08:25:07.495Z,9.07
2023-12-18T08:27:35.581Z,9.30
2023-12-18T08:30:08.049Z,9.55
2023-12-18T08:32:34.698Z,9.35
2023-12-18T08:35:01.728Z,9.07
2023-12-18T08:37:28.814Z,9.13
2023-12-18T08:39:56.185Z,9.10
2023-12-18T08:42:23.896Z,9.90
2023-12-18T08:44:50.732Z,9.43
2023-12-18T08:47:17.343Z,8.75
2023-12-18T08:49:43.859Z,8.53
2023-12-18T08:52:10.580Z,8.55
2023-12-18T08:54:37.116Z,9.90
2023-12-18T08:57:03.934Z,9.57
2023-12-18T08:59:30.429Z,9.50
2023-12-18T09:01:56.905Z,9.50
2023-12-18T09:04:23.470Z,8.80
2023-12-18T09:06:50.052Z,9.77
2023-12-18T09:09:16.785Z,9.38
2023-12-18T09:11:43.367Z,10.07
2023-12-18T09:14:09.841Z,9.37
2023-12-18T09:16:38.312Z,9.38
2023-12-18T09:19:05.255Z,9.32
2023-12-18T09:21:31.907Z,9.77
2023-12-18T09:23:58.478Z,8.95
2023-12-18T09:26:25.049Z,8.07
2023-12-18T09:28:51.623Z,9.00
2023-12-18T09:31:18.358Z,9.65
2023-12-18T09:33:46.234Z,9.27
2023-12-18T09:36:13.014Z,10.15
2023-12-18T09:38:40.119Z,9.73
2023-12-18T09:41:06.743Z,9.02
2023-12-18T09:43:33.477Z,8.82
2023-12-18T09:45:59.990Z,8.65
2023-12-18T09:48:26.821Z,8.93
2023-12-18T09:50:54.337Z,9.00
2023-12-18T09:53:22.784Z,10.40
2023-12-18T09:55:51.308Z,8.98
2023-12-18T09:58:19.609Z,9.65
2023-12-18T10:00:48.411Z,9.10
2023-12-18T10:03:17.787Z,9.40
2023-12-18T10:05:45.173Z,10.48
2023-12-18T10:08:11.765Z,9.40
2023-12-18T10:10:38.285Z,9.32
2023-12-18T10:13:08.072Z,9.02
2023-12-18T10:15:35.529Z,10.33
2023-12-18T10:18:04.301Z,7.75
2023-12-18T10:20:31.522Z,9.20
2023-12-18T10:23:00.407Z,9.48
2023-12-18T10:25:27.026Z,9.23
2023-12-18T10:27:57.067Z,9.43
2023-12-18T10:30:28.717Z,8.90
2023-12-18T10:32:55.991Z,8.82
2023-12-18T10:35:23.512Z,9.38
2023-12-18T10:37:54.758Z,9.32
2023-12-18T10:40:23.588Z,8.20
2023-12-18T10:43:22.787Z,8.43
2023-12-18T10:45:51.038Z,8.73
2023-12-18T10:48:18.330Z,9.07
2023-12-18T10:50:45.974Z,8.55
2023-12-18T10:53:15.220Z,8.70
2023-12-18T10:55:42.166Z,8.90
2023-12-18T10:58:09.334Z,9.75
2023-12-18T11:00:36.285Z,9.38
2023-12-18T11:03:03.433Z,8.77
2023-12-18T11:05:32.325Z,8.53
2023-12-18T11:07:59.510Z,9.30
2023-12-18T11:10:26.833Z,8.85
2023-12-18T11:13:03.155Z,8.90
2023-12-18T11:15:44.779Z,9.10
2023-12-18T11:18:33.265Z,7.50
2023-12-18T11:20:59.907Z,7.43
2023-12-18T11:23:30.356Z,8.00
2023-12-18T11:25:58.375Z,8.95
2023-12-18T11:28:26.515Z,8.88
2023-12-18T11:31:01.232Z,9.00
2023-12-18T11:33:33.319Z,9.75
2023-12-18T11:36:05.885Z,8.75
2023-12-18T11:38:35.030Z,8.90
2023-12-18T11:41:01.567Z,8.65
2023-12-18T11:43:38.811Z,9.87
2023-12-18T11:46:17.427Z,8.77
2023-12-18T11:48:47.393Z,9.23
2023-12-18T11:51:14.637Z,8.63
2023-12-18T11:53:41.429Z,9.18
2023-12-18T11:56:09.595Z,8.63
2023-12-18T11:58:37.441Z,9.07
2023-12-18T12:01:04.496Z,10.77
2023-12-18T12:03:33.717Z,10.40
2023-12-18T12:06:01.650Z,10.25
2023-12-18T12:08:28.627Z,9.40
2023-12-18T12:10:56.259Z,9.02
2023-12-18T12:13:28.051Z,9.05
2023-12-18T12:15:59.459Z,9.90
2023-12-18T12:18:28.167Z,8.43
2023-12-18T12:20:55.333Z,9.20
2023-12-18T12:23:22.374Z,9.68
2023-12-18T12:25:51.030Z,8.25
2023-12-18T12:28:18.275Z,9.73
2023-12-18T12:30:45.530Z,8.93
2023-12-18T12:33:12.447Z,8.37
2023-12-18T12:35:39.272Z,9.45
2023-12-18T12:38:06.418Z,8.63
2023-12-18T12:40:40.806Z,9.38
2023-12-18T12:43:07.942Z,8.75
2023-12-18T12:45:36.226Z,8.90
2023-12-18T12:48:05.197Z,9.45
2023-12-18T12:50:32.179Z,8.25
2023-12-18T12:53:00.728Z,8.23
2023-12-18T12:55:27.222Z,8.50
2023-12-18T12:57:54.576Z,8.77
2023-12-18T13:00:23.461Z,8.80
2023-12-18T13:02:49.918Z,9.63
2023-12-18T13:05:16.474Z,8.52
2023-12-18T13:07:43.198Z,9.45
2023-12-18T13:10:12.011Z,8.97
2023-12-18T13:12:38.956Z,8.00
2023-12-18T13:15:05.979Z,8.68
2023-12-18T13:17:32.623Z,9.23
2023-12-18T13:20:03.201Z,9.38
2023-12-18T13:22:32.806Z,9.37
2023-12-18T13:24:59.291Z,8.55
2023-12-18T13:27:27.315Z,8.95
2023-12-18T13:29:55.097Z,7.50
2023-12-18T13:32:22.245Z,8.73
2023-12-18T13:34:48.848Z,8.37
2023-12-18T13:37:15.391Z,9.13
2023-12-18T13:39:41.897Z,8.20
2023-12-18T13:42:10.184Z,9.10
2023-12-18T13:44:36.713Z,8.40
2023-12-18T13:47:03.251Z,8.97
2023-12-18T13:49:30.022Z,8.43
2023-12-18T13:51:56.558Z,9.93
2023-12-18T13:54:23.399Z,8.77
2023-12-18T13:56:50.131Z,8.15
2023-12-18T13:59:16.658Z,9.37
2023-12-18T14:01:43.493Z,9.00
2023-12-18T14:04:10.349Z,9.57
2023-12-18T14:06:37.067Z,8.85
2023-12-18T14:09:04.630Z,8.35
2023-12-18T14:11:31.817Z,9.17
2023-12-18T14:13:58.915Z,8.60
2023-12-18T14:16:25.490Z,8.30
2023-12-18T14:18:54.878Z,9.23
2023-12-18T14:21:22.898Z,9.30
2023-12-18T14:23:50.309Z,8.83
2023-12-18T14:26:17.074Z,8.57
2023-12-18T14:28:44.268Z,9.00
2023-12-18T14:31:11.046Z,8.73
2023-12-18T14:33:38.065Z,9.05
2023-12-18T14:36:04.846Z,8.70
2023-12-18T14:38:31.351Z,8.73
2023-12-18T14:40:58.042Z,10.27
2023-12-18T14:43:24.646Z,9.57
2023-12-18T14:45:51.302Z,9.63
2023-12-18T14:48:23.068Z,9.07
2023-12-18T14:50:52.771Z,9.13
2023-12-18T14:53:19.242Z,10.38
2023-12-18T14:55:45.849Z,8.30
2023-12-18T14:58:12.417Z,9.70
2023-12-18T15:00:38.958Z,8.93
2023-12-18T15:03:06.366Z,9.68
2023-12-18T15:05:33.246Z,10.40
2023-12-18T15:08:00.182Z,10.18
2023-12-18T15:10:28.323Z,8.85
2023-12-18T15:12:54.895Z,9.60
2023-12-18T15:15:21.666Z,8.75
2023-12-18T15:17:48.476Z,9.45
2023-12-18T15:20:15.338Z,9.80
2023-12-18T15:22:42.140Z,8.60
2023-12-18T15:25:08.975Z,8.77
2023-12-18T15:27:35.565Z,8.93
2023-12-18T15:30:03.121Z,8.82
2023-12-18T15:32:29.637Z,9.68
2023-12-18T15:34:56.413Z,8.90
2023-12-18T15:37:23.669Z,10.47
2023-12-18T15:39:50.308Z,9.43
2023-12-18T15:42:16.952Z,9.93
2023-12-18T15:44:43.510Z,9.13
2023-12-18T15:47:10.260Z,10.27
2023-12-18T15:49:36.914Z,9.27
2023-12-18T15:52:03.719Z,9.02
2023-12-18T15:54:30.486Z,10.07
2023-12-18T15:56:57.113Z,10.20
2023-12-18T15:59:23.601Z,9.90
2023-12-18T16:01:50.158Z,9.90
2023-12-18T16:04:16.922Z,9.23
2023-12-18T16:06:44.278Z,8.98
2023-12-18T16:09:13.883Z,9.70
2023-12-18T16:11:41.009Z,10.90
2023-12-18T16:14:07.798Z,9.10
2023-12-18T16:16:34.316Z,9.77
2023-12-18T16:19:00.937Z,9.75
2023-12-18T16:21:29.541Z,9.25
2023-12-18T16:23:56.094Z,9.32
2023-12-18T16:26:22.851Z,9.67
2023-12-18T16:28:50.807Z,9.00
2023-12-18T16:31:17.591Z,10.27
2023-12-18T16:33:44.340Z,10.05
2023-12-18T16:36:19.359Z,9.35
2023-12-18T16:38:51.291Z,9.80
2023-12-18T16:41:18.267Z,10.20
2023-12-18T16:43:45.055Z,11.05
2023-12-18T16:46:11.683Z,9.32
2023-12-18T16:48:38.446Z,10.05
2023-12-18T16:51:05.897Z,9.97
2023-12-18T16:53:32.602Z,10.27
2023-12-18T16:55:59.650Z,10.93
2023-12-18T16:58:26.456Z,10.57
2023-12-18T17:00:53.110Z,11.20
2023-12-18T17:03:22.433Z,11.97
2023-12-18T17:05:50.500Z,10.82
2023-12-18T17:08:17.726Z,13.95
2023-12-18T17:10:44.865Z,11.43
2023-12-18T17:13:15.020Z,11.70
2023-12-18T17:15:43.656Z,11.60
2023-12-18T17:18:10.918Z,12.35
2023-12-18T17:20:38.351Z,12.07
2023-12-18T17:23:05.717Z,11.38
2023-12-18T17:25:32.389Z,12.05
2023-12-18T17:27:59.203Z,11.57
2023-12-18T17:30:26.548Z,10.73
2023-12-18T17:32:53.176Z,12.57
2023-12-18T17:35:19.743Z,12.48
2023-12-18T17:37:46.369Z,12.20
2023-12-18T17:40:13.379Z,11.27
2023-12-18T17:42:40.180Z,11.15
2023-12-18T17:45:08.217Z,11.70
2023-12-18T17:47:34.982Z,12.75
2023-12-18T17:50:02.024Z,12.13
2023-12-18T17:52:28.860Z,12.93
2023-12-18T17:54:55.431Z,13.18
2023-12-18T17:57:22.066Z,13.45
2023-12-18T17:59:48.972Z,12.82
2023-12-18T18:02:16.336Z,12.30
2023-12-18T18:04:46.204Z,13.33
2023-12-18T18:07:13.589Z,13.75
2023-12-18T18:09:41.932Z,12.38
2023-12-18T18:12:08.699Z,12.98
2023-12-18T18:14:35.322Z,13.15
2023-12-18T18:17:02.119Z,12.87
2023-12-18T18:19:29.131Z,12.63
2023-12-18T18:21:55.833Z,12.88
2023-12-18T18:24:22.815Z,13.30
2023-12-18T18:26:51.508Z,12.57
2023-12-18T18:29:34.966Z,12.60
2023-12-18T18:32:01.910Z,13.20
2023-12-18T18:34:28.524Z,12.23
2023-12-18T18:36:55.193Z,13.85
2023-12-18T18:39:21.945Z,12.98
2023-12-18T18:41:48.527Z,14.50
2023-12-18T18:44:15.102Z,13.35
2023-12-18T18:46:41.688Z,13.10
2023-12-18T18:49:08.730Z,12.63
2023-12-18T18:51:36.020Z,13.52
2023-12-18T18:54:03.836Z,12.37
2023-12-18T18:56:30.487Z,13.13
2023-12-18T18:58:57.248Z,13.18
2023-12-18T19:01:24.652Z,12.43
2023-12-18T19:03:51.896Z,14.88
2023-12-18T19:06:18.630Z,13.70
2023-12-18T19:08:45.113Z,13.57
2023-12-18T19:11:11.648Z,12.38
2023-12-18T19:13:38.202Z,12.00
2023-12-18T19:16:05.570Z,14.55
2023-12-18T19:18:32.385Z,12.07
2023-12-18T19:20:58.927Z,12.65
2023-12-18T19:23:25.469Z,12.60
2023-12-18T19:25:52.060Z,12.50
2023-12-18T19:28:18.548Z,12.00
2023-12-18T19:30:45.362Z,12.97
2023-12-18T19:33:12.632Z,15.02
2023-12-18T19:35:42.654Z,12.65
2023-12-18T19:38:09.634Z,13.93
2023-12-18T19:40:36.287Z,14.50
2023-12-18T19:43:06.145Z,13.30
2023-12-18T19:45:33.344Z,14.18
2023-12-18T19:48:00.116Z,12.77
2023-12-18T19:50:27.176Z,13.38
2023-12-18T19:52:54.662Z,14.02
2023-12-18T19:55:21.308Z,13.37
2023-12-18T19:57:48.250Z,12.05
2023-12-18T20:00:16.299Z,13.38
2023-12-18T20:02:44.038Z,14.40
2023-12-18T20:05:11.034Z,14.75
2023-12-18T20:07:38.120Z,13.03
2023-12-18T20:10:05.149Z,13.68
2023-12-18T20:12:31.860Z,13.13
2023-12-18T20:14:58.345Z,14.27
2023-12-18T20:17:27.488Z,12.85
2023-12-18T20:19:56.622Z,13.93
2023-12-18T20:22:24.555Z,12.88
2023-12-18T20:24:51.340Z,13.07
2023-12-18T20:27:18.345Z,13.23
2023-12-18T20:29:45.721Z,13.85
2023-12-18T20:32:12.402Z,14.70
2023-12-18T20:34:39.373Z,13.75
2023-12-18T20:37:06.146Z,14.57
2023-12-18T20:39:32.932Z,13.98
2023-12-18T20:41:59.515Z,15.05
2023-12-18T20:44:26.080Z,13.00
2023-12-18T20:46:52.630Z,13.02
2023-12-18T20:49:19.246Z,14.93
2023-12-18T20:51:45.989Z,13.68
2023-12-18T20:54:12.581Z,12.98
2023-12-18T20:56:39.225Z,14.07
2023-12-18T20:59:06.847Z,13.25
2023-12-18T21:01:33.828Z,14.45
2023-12-18T21:04:00.762Z,14.13
2023-12-18T21:06:28.609Z,15.00
2023-12-18T21:08:55.496Z,14.53
2023-12-18T21:11:22.139Z,14.68
2023-12-18T21:13:48.736Z,15.07
2023-12-18T21:16:15.633Z,14.43
2023-12-18T21:18:42.867Z,14.77
2023-12-18T21:21:09.962Z,14.70
2023-12-18T21:23:36.771Z,14.30
2023-12-18T21:26:05.088Z,14.68
2023-12-18T21:28:32.079Z,14.98
2023-12-18T21:30:58.786Z,15.45
2023-12-18T21:33:26.327Z,13.80
2023-12-18T21:35:53.149Z,16.75
2023-12-18T21:38:19.672Z,14.25
2023-12-18T21:40:46.420Z,15.40
2023-12-18T21:43:12.940Z,13.60
2023-12-18T21:45:39.695Z,14.87
2023-12-18T21:48:07.043Z,14.07
2023-12-18T21:50:40.005Z,15.15
2023-12-18T21:53:07.801Z,14.05
2023-12-18T21:55:34.436Z,14.52
2023-12-18T21:58:01.315Z,13.93
2023-12-18T22:00:29.817Z,13.93
2023-12-18T22:02:58.348Z,13.95
2023-12-18T22:05:25.171Z,13.50
2023-12-18T22:07:51.978Z,14.93
2023-12-18T22:10:18.799Z,14.53
2023-12-18T22:12:45.619Z,13.57
2023-12-18T22:15:13.434Z,14.52
2023-12-18T22:17:39.997Z,13.90
2023-12-18T22:20:12.208Z,15.02
2023-12-18T22:22:39.341Z,15.03
2023-12-18T22:25:06.549Z,13.63
2023-12-18T22:27:33.119Z,14.23
2023-12-18T22:29:59.571Z,13.88
2023-12-18T22:32:26.035Z,13.57
2023-12-18T22:34:53.052Z,14.00
2023-12-18T22:37:19.638Z,13.73
2023-12-18T22:39:46.257Z,14.85
2023-12-18T22:42:12.786Z,14.05
2023-12-18T22:44:39.495Z,15.93
2023-12-18T22:47:06.351Z,15.33
2023-12-18T22:49:32.883Z,14.25
2023-12-18T22:51:59.699Z,14.52
2023-12-18T22:54:26.333Z,15.00
2023-12-18T22:56:52.848Z,14.82
2023-12-18T22:59:19.437Z,14.67
2023-12-18T23:01:46.033Z,16.35
2023-12-18T23:04:12.732Z,14.60
2023-12-18T23:06:39.362Z,15.73
2023-12-18T23:09:05.903Z,15.23
2023-12-18T23:11:32.522Z,13.80
2023-12-18T23:13:59.152Z,14.02
2023-12-18T23:16:25.756Z,14.57
2023-12-18T23:18:52.323Z,14.13
2023-12-18T23:21:18.977Z,14.00
2023-12-18T23:23:45.461Z,13.90
2023-12-18T23:26:11.931Z,13.25
2023-12-18T23:28:38.911Z,14.55
2023-12-18T23:31:05.857Z,16.58
2023-12-18T23:33:32.888Z,15.35
2023-12-18T23:36:00.090Z,13.53
2023-12-18T23:38:27.088Z,15.18
2023-12-18T23:40:54.209Z,12.27
2023-12-18T23:43:20.832Z,13.98
2023-12-18T23:45:47.479Z,14.20
2023-12-18T23:48:14.081Z,14.00
2023-12-18T23:50:41.125Z,14.57
2023-12-18T23:53:08.467Z,13.90
2023-12-18T23:55:35.057Z,13.57
2023-12-18T23:58:02.329Z,15.98
